x

Portland 12 Nm Southeast Of Portland,me (44007) Wave Buoy

12:50pm - Thu 17th Aug 2017 All times are EDT. -4 hours from GMT.

  • Sig Wave height 2.3ft
  • Swell Direction
  • Peak Period 10s
  • Average Period 7s
  • Wind
    4mph, 9mph gusts
  • Sea Temp 64°f
  • 空気 Temp 69°f
  • Sea Pressure 1015mb
  • Portland 12 Nm Southeast Of Portland,me
  • Portland 12 Nm Southeast Of Portland,me

More Historic Weather Station data

Upgrade to MSW Pro to gain access to the past 30 days of data for over 8000 Wavebouys and Weather Stations around the globe.

Join

Comparision Forecast

View Surf forecast
   
Thu 08/17 12:50pm 2.5ft 10s 7s 4 9 mph 1015mb 64f 69f
11:50am 2ft 11s 5s 11 13 mph 1015.3mb 64f 65f
10:50am 2ft 11s 7s 9 11 mph 1015.9mb 64f 64f
9:50am 2.5ft 11s 7s 11 13 mph 1016.3mb 64f 63f
8:50am 2.5ft 11s 7s 11 11 mph 1016.2mb 64f 62f
7:50am 2ft 10s 7s 13 13 mph 1016.3mb 63f 60f
6:50am 2.5ft 10s 8s 7 9 mph 1016mb 63f 60f
5:50am 2.5ft 9s 8s 9 11 mph 1015.5mb 63f 60f
4:50am 2.5ft 9s 8s 11 11 mph 1015.4mb 63f 60f
3:50am 2.5ft 12s 8s 9 11 mph 1015.6mb 63f 61f
2:50am 2.5ft 11s 9s 9 11 mph 1015.7mb 63f 61f
1:50am 2.5ft 13s 9s 9 11 mph 1015.7mb 64f 62f
12:50am 2.5ft 14s 9s 4 4 mph 1015.7mb 64f 64f
Wed 08/16 11:50pm 3ft 14s 10s 7 7 mph 1015.6mb 64f 64f
10:50pm 3ft 15s 10s 7 9 mph 1015.6mb 64f 65f
9:50pm 2.5ft 12s 8s 7 9 mph 1015.1mb 64f 66f
8:50pm 2.5ft 12s 7s 9 9 mph 1014.4mb 64f 67f
6:50pm 2ft 13s 6s 7 9 mph 1012.6mb 64f 70f
5:50pm 2.5ft 7s 5s 11 11 mph 1011.9mb 65f 70f
4:50pm 2.5ft 13s 5s 9 13 mph 1011.8mb 65f 70f
3:50pm 2.5ft 10s 6s 2 4 mph 1012mb 65f 70f
2:50pm 2.5ft 10s 6s 4 7 mph 1012.1mb 65f 69f
1:50pm 2.5ft 12s 6s 7 9 mph 1012.3mb 65f 70f
12:50pm 2.5ft 8s 6s 4 7 mph 1012mb 64f 71f
11:50am 2.5ft 8s 6s 4 4 mph 1012.3mb 63f 71f
10:50am 2.5ft 8s 5s 7 9 mph 1012.4mb 62f 69f
9:50am 2.5ft 9s 6s 2 4 mph 1012.1mb 61f 67f
8:50am 2.5ft 9s 5s 2 4 mph 1012mb 62f 64f
7:50am 2.5ft 10s 5s 4 4 mph 1011.9mb 62f 64f
6:50am 2.5ft 7s 5s 4 7 mph 1011.2mb 61f 63f
5:50am 2.5ft 5s 5s 7 7 mph 1010.5mb 61f 62f
4:50am 2.5ft 10s 5s 9 11 mph 1010.2mb 61f 63f
3:50am 2.5ft 5s 5s 9 11 mph 1009.8mb 61f 64f
2:50am 3ft 5s 5s 9 9 mph 1009.9mb 62f 64f
1:50am 2.5ft 10s 5s 9 11 mph 1009.6mb 62f 64f
12:50am 2.5ft 10s 4s 13 13 mph 1009.7mb 62f 64f
Tue 08/15 11:50pm 2.5ft 4s 4s 11 11 mph 1010.2mb 62f 65f
10:50pm 2.5ft 4s 4s 18 20 mph 1009.8mb 62f 66f
9:50pm 2.5ft 6s 4s 11 13 mph 1010.5mb 62f 66f
8:50pm 2.5ft 7s 4s 13 16 mph 1010.1mb 62f 66f
7:50pm 3ft 7s 4s 16 18 mph 1009.8mb 63f 67f
6:50pm 3ft 7s 5s 16 20 mph 1010mb 63f 68f
5:50pm 3ft 7s 5s 18 20 mph 1010.1mb 63f 67f
4:50pm 2.5ft 7s 5s 13 16 mph 1010.4mb 64f 67f
3:50pm 2.5ft 6s 6s 16 18 mph 1010.9mb 64f 67f
2:50pm 2ft 7s 5s 11 11 mph 1011.6mb 64f 67f
1:50pm 2ft 7s 5s 9 11 mph 1012.1mb 64f 66f
12:50pm 2ft 8s 5s 11 13 mph 1012.1mb 64f 66f
11:50am 2ft 8s 5s 9 9 mph 1012.6mb 64f 66f
10:50am 2ft 8s 5s 7 9 mph 1013mb 64f 65f
9:50am 2ft 8s 5s 7 7 mph 1013.4mb 63f 64f
8:50am 2ft 6s 5s 7 7 mph 1013.4mb 63f 64f
7:50am 2.5ft 7s 5s 7 7 mph 1013.4mb 63f 64f
6:50am 2.5ft 7s 5s 2 4 mph 1013.4mb 63f 64f
5:50am 2.5ft 7s 5s 4 4 mph 1013.7mb 63f 63f
4:50am 2.5ft 7s 5s 7 7 mph 1013.3mb 63f 65f
3:50am 2.5ft 7s 6s 4 4 mph 1013.3mb 63f 65f
2:50am 2.5ft 7s 6s 4 4 mph 1013.7mb 63f 65f
1:50am 2.5ft 8s 5s 7 7 mph 1013.9mb 63f 66f
12:50am 2.5ft 7s 6s 7 7 mph 1014.3mb 64f 66f
Mon 08/14 11:50pm 2.5ft 7s 5s 4 7 mph 1014.5mb 63f 66f
10:50pm 2.5ft 8s 5s 7 7 mph 1014.7mb 63f 66f
9:50pm 2.5ft 8s 6s 11 11 mph 1015mb 63f 66f
8:50pm 2.5ft 8s 6s 9 9 mph 1014.7mb 64f 66f
7:50pm 2.5ft 8s 6s 11 11 mph 1014.4mb 64f 67f
6:50pm 2.5ft 8s 5s 11 13 mph 1014.4mb 64f 67f
5:50pm 2.5ft 7s 6s 13 13 mph 1014.5mb 64f 68f
4:50pm 2.5ft 8s 6s 13 16 mph 1014.7mb 65f 68f
3:50pm 3ft 8s 7s 11 13 mph 1015.2mb 65f 68f
2:50pm 3ft 8s 7s 9 11 mph 1015.7mb 66f 68f
1:50pm 2.5ft 7s 6s 7 9 mph 1016.4mb 65f 67f
12:50pm 2.5ft 7s 6s 7 7 mph 1017.1mb 65f 67f
11:50am 2.5ft 8s 6s 7 7 mph 1017.4mb 64f 66f
10:50am 2.5ft 8s 6s 2 4 mph 1017.6mb 64f 65f
9:50am 2.5ft 8s 6s 2 2 mph 1017.9mb 63f 64f
8:50am 2.5ft 8s 6s 4 4 mph 1017.8mb 62f 62f
7:50am 2.5ft 7s 6s 4 7 mph 1017.6mb 62f 62f
6:50am 2ft 7s 6s 4 4 mph 1017.1mb 62f 62f
5:50am 2.5ft 7s 6s 4 4 mph 1016.7mb 62f 62f
4:50am 2.5ft 7s 6s 7 7 mph 1016.3mb 62f 63f
3:50am 2.5ft 7s  -  7 7 mph 1016.1mb 62f 63f
2:50am 2.5ft 7s 6s 7 9 mph 1015.6mb 62f 63f
1:50am 2ft 7s 6s 4 7 mph 1015.3mb 63f 64f
12:50am 2ft 7s 6s 2 4 mph 1015.3mb 63f 66f
Sun 08/13 11:50pm 2ft 8s 6s 4 4 mph 1015.2mb 63f 69f
10:50pm 2ft 8s 6s 7 9 mph 1014.7mb 63f 68f
9:50pm 2ft 7s 6s 4 4 mph 1014.6mb 63f 69f
8:50pm 2.5ft 7s 6s 7 9 mph 1013.6mb 63f 70f
7:50pm 2.5ft 8s 6s 9 11 mph 1012.9mb 63f 70f
6:50pm 3ft 7s 6s 9 11 mph 1011.9mb 63f 70f
5:50pm 3ft 6s 5s 9 11 mph 1011.2mb 63f 70f